sensor_id;sensor_type;location;lat;lon;timestamp;pressure;altitude;pressure_sealevel;temperature
67966;BMP280;54749;47.850;9.002;2023-04-24T00:01:30;95096.03;;;10.61
67966;BMP280;54749;47.850;9.002;2023-04-24T00:03:58;95094.44;;;10.60
67966;BMP280;54749;47.850;9.002;2023-04-24T00:06:26;95085.53;;;10.56
67966;BMP280;54749;47.850;9.002;2023-04-24T00:09:00;95090.06;;;10.53
67966;BMP280;54749;47.850;9.002;2023-04-24T00:11:28;95101.09;;;10.52
67966;BMP280;54749;47.850;9.002;2023-04-24T00:13:56;95086.22;;;10.49
67966;BMP280;54749;47.850;9.002;2023-04-24T00:16:23;95089.81;;;10.47
67966;BMP280;54749;47.850;9.002;2023-04-24T00:18:50;95079.97;;;10.44
67966;BMP280;54749;47.850;9.002;2023-04-24T00:21:19;95083.44;;;10.43
67966;BMP280;54749;47.850;9.002;2023-04-24T00:23:47;95079.44;;;10.40
67966;BMP280;54749;47.850;9.002;2023-04-24T00:26:14;95063.66;;;10.38
67966;BMP280;54749;47.850;9.002;2023-04-24T00:28:41;95072.16;;;10.37
67966;BMP280;54749;47.850;9.002;2023-04-24T00:31:09;95067.38;;;10.34
67966;BMP280;54749;47.850;9.002;2023-04-24T00:33:36;95059.00;;;10.34
67966;BMP280;54749;47.850;9.002;2023-04-24T00:36:03;95057.41;;;10.33
67966;BMP280;54749;47.850;9.002;2023-04-24T00:38:30;95057.41;;;10.33
67966;BMP280;54749;47.850;9.002;2023-04-24T00:40:57;95057.69;;;10.30
67966;BMP280;54749;47.850;9.002;2023-04-24T00:43:24;95057.81;;;10.29
67966;BMP280;54749;47.850;9.002;2023-04-24T00:45:52;95043.44;;;10.29
67966;BMP280;54749;47.850;9.002;2023-04-24T00:48:20;95042.53;;;10.30
67966;BMP280;54749;47.850;9.002;2023-04-24T00:50:47;95037.59;;;10.29
67966;BMP280;54749;47.850;9.002;2023-04-24T00:53:14;95036.53;;;10.31
67966;BMP280;54749;47.850;9.002;2023-04-24T00:55:41;95040.78;;;10.31
67966;BMP280;54749;47.850;9.002;2023-04-24T00:58:09;95039.31;;;10.28
67966;BMP280;54749;47.850;9.002;2023-04-24T01:00:36;95037.09;;;10.25
67966;BMP280;54749;47.850;9.002;2023-04-24T01:03:04;95036.41;;;10.23
67966;BMP280;54749;47.850;9.002;2023-04-24T01:05:33;95041.59;;;10.22
67966;BMP280;54749;47.850;9.002;2023-04-24T01:08:01;95035.22;;;10.18
67966;BMP280;54749;47.850;9.002;2023-04-24T01:10:31;95041.47;;;10.14
67966;BMP280;54749;47.850;9.002;2023-04-24T01:13:00;95029.25;;;10.10
67966;BMP280;54749;47.850;9.002;2023-04-24T01:15:27;95033.25;;;10.03
67966;BMP280;54749;47.850;9.002;2023-04-24T01:17:54;95022.47;;;10.01
67966;BMP280;54749;47.850;9.002;2023-04-24T01:20:21;95020.63;;;10.03
67966;BMP280;54749;47.850;9.002;2023-04-24T01:22:49;95031.53;;;10.03
67966;BMP280;54749;47.850;9.002;2023-04-24T01:25:16;95032.31;;;10.04
67966;BMP280;54749;47.850;9.002;2023-04-24T01:27:44;95028.59;;;10.08
67966;BMP280;54749;47.850;9.002;2023-04-24T01:30:11;95032.69;;;10.09
67966;BMP280;54749;47.850;9.002;2023-04-24T01:32:40;95029.13;;;10.11
67966;BMP280;54749;47.850;9.002;2023-04-24T01:35:08;95038.13;;;10.14
67966;BMP280;54749;47.850;9.002;2023-04-24T01:37:35;95039.75;;;10.15
67966;BMP280;54749;47.850;9.002;2023-04-24T01:40:06;95022.06;;;10.15
67966;BMP280;54749;47.850;9.002;2023-04-24T01:42:34;95012.50;;;10.18
67966;BMP280;54749;47.850;9.002;2023-04-24T01:45:02;95025.13;;;10.18
67966;BMP280;54749;47.850;9.002;2023-04-24T01:47:30;95017.94;;;10.14
67966;BMP280;54749;47.850;9.002;2023-04-24T01:49:58;95011.56;;;10.10
67966;BMP280;54749;47.850;9.002;2023-04-24T01:52:25;95010.25;;;10.06
67966;BMP280;54749;47.850;9.002;2023-04-24T01:54:53;95018.75;;;10.05
67966;BMP280;54749;47.850;9.002;2023-04-24T01:57:22;95010.53;;;10.03
67966;BMP280;54749;47.850;9.002;2023-04-24T01:59:50;95019.72;;;10.04
67966;BMP280;54749;47.850;9.002;2023-04-24T02:02:18;95022.06;;;10.05
67966;BMP280;54749;47.850;9.002;2023-04-24T02:04:45;95017.81;;;10.06
67966;BMP280;54749;47.850;9.002;2023-04-24T02:07:12;95020.34;;;10.06
67966;BMP280;54749;47.850;9.002;2023-04-24T02:09:39;95013.59;;;10.06
67966;BMP280;54749;47.850;9.002;2023-04-24T02:12:07;95013.47;;;10.08
67966;BMP280;54749;47.850;9.002;2023-04-24T02:14:34;95002.41;;;10.09
67966;BMP280;54749;47.850;9.002;2023-04-24T02:17:02;95016.78;;;10.08
67966;BMP280;54749;47.850;9.002;2023-04-24T02:19:30;94996.44;;;10.10
67966;BMP280;54749;47.850;9.002;2023-04-24T02:21:57;95017.69;;;10.07
67966;BMP280;54749;47.850;9.002;2023-04-24T02:24:24;95011.06;;;10.06
67966;BMP280;54749;47.850;9.002;2023-04-24T02:26:51;95006.81;;;10.07
67966;BMP280;54749;47.850;9.002;2023-04-24T02:29:19;94998.03;;;10.01
67966;BMP280;54749;47.850;9.002;2023-04-24T02:31:49;95003.88;;;10.02
67966;BMP280;54749;47.850;9.002;2023-04-24T02:34:16;95007.88;;;9.95
67966;BMP280;54749;47.850;9.002;2023-04-24T02:36:43;95014.66;;;9.95
67966;BMP280;54749;47.850;9.002;2023-04-24T02:39:11;95005.63;;;9.92
67966;BMP280;54749;47.850;9.002;2023-04-24T02:41:39;94992.88;;;9.94
67966;BMP280;54749;47.850;9.002;2023-04-24T02:44:06;94986.38;;;9.91
67966;BMP280;54749;47.850;9.002;2023-04-24T02:46:33;94993.28;;;9.89
67966;BMP280;54749;47.850;9.002;2023-04-24T02:49:00;94985.72;;;9.89
67966;BMP280;54749;47.850;9.002;2023-04-24T02:51:27;94985.84;;;9.88
67966;BMP280;54749;47.850;9.002;2023-04-24T02:53:55;94991.69;;;9.88
67966;BMP280;54749;47.850;9.002;2023-04-24T02:56:22;94995.69;;;9.81
67966;BMP280;54749;47.850;9.002;2023-04-24T02:58:49;94987.44;;;9.80
67966;BMP280;54749;47.850;9.002;2023-04-24T03:01:16;94981.03;;;9.76
67966;BMP280;54749;47.850;9.002;2023-04-24T03:03:45;94984.47;;;9.75
67966;BMP280;54749;47.850;9.002;2023-04-24T03:06:12;94983.84;;;9.73
67966;BMP280;54749;47.850;9.002;2023-04-24T03:08:40;94978.38;;;9.68
67966;BMP280;54749;47.850;9.002;2023-04-24T03:11:06;94975.47;;;9.63
67966;BMP280;54749;47.850;9.002;2023-04-24T03:13:34;94953.97;;;9.59
67966;BMP280;54749;47.850;9.002;2023-04-24T03:16:01;94985.16;;;9.58
67966;BMP280;54749;47.850;9.002;2023-04-24T03:18:29;94970.03;;;9.58
67966;BMP280;54749;47.850;9.002;2023-04-24T03:20:56;94969.09;;;9.59
67966;BMP280;54749;47.850;9.002;2023-04-24T03:23:24;94970.69;;;9.60
67966;BMP280;54749;47.850;9.002;2023-04-24T03:25:51;94974.13;;;9.59
67966;BMP280;54749;47.850;9.002;2023-04-24T03:28:19;94952.25;;;9.60
67966;BMP280;54749;47.850;9.002;2023-04-24T03:30:56;94964.06;;;9.59
67966;BMP280;54749;47.850;9.002;2023-04-24T03:33:25;94965.09;;;9.57
67966;BMP280;54749;47.850;9.002;2023-04-24T03:36:00;94961.00;;;9.56
67966;BMP280;54749;47.850;9.002;2023-04-24T03:38:35;94970.28;;;9.55
67966;BMP280;54749;47.850;9.002;2023-04-24T03:41:22;94968.69;;;9.54
67966;BMP280;54749;47.850;9.002;2023-04-24T03:43:54;94970.94;;;9.57
67966;BMP280;54749;47.850;9.002;2023-04-24T03:46:22;94975.19;;;9.57
67966;BMP280;54749;47.850;9.002;2023-04-24T03:49:00;94961.94;;;9.55
67966;BMP280;54749;47.850;9.002;2023-04-24T03:51:31;94968.00;;;9.52
67966;BMP280;54749;47.850;9.002;2023-04-24T03:54:09;94958.19;;;9.49
67966;BMP280;54749;47.850;9.002;2023-04-24T03:56:38;94965.66;;;9.51
67966;BMP280;54749;47.850;9.002;2023-04-24T03:59:06;94967.78;;;9.74
67966;BMP280;54749;47.850;9.002;2023-04-24T04:01:34;94975.22;;;9.94
67966;BMP280;54749;47.850;9.002;2023-04-24T04:04:15;94965.72;;;10.23
67966;BMP280;54749;47.850;9.002;2023-04-24T04:06:44;94946.44;;;10.22
67966;BMP280;54749;47.850;9.002;2023-04-24T04:09:11;94970.88;;;10.22
67966;BMP280;54749;47.850;9.002;2023-04-24T04:11:39;94956.78;;;10.38
67966;BMP280;54749;47.850;9.002;2023-04-24T04:14:06;94958.97;;;10.15
67966;BMP280;54749;47.850;9.002;2023-04-24T04:16:35;94953.94;;;9.96
67966;BMP280;54749;47.850;9.002;2023-04-24T04:19:05;94967.41;;;9.78
67966;BMP280;54749;47.850;9.002;2023-04-24T04:21:32;94965.50;;;9.71
67966;BMP280;54749;47.850;9.002;2023-04-24T04:24:11;94964.56;;;9.62
67966;BMP280;54749;47.850;9.002;2023-04-24T04:26:43;94969.91;;;9.60
67966;BMP280;54749;47.850;9.002;2023-04-24T04:29:24;94983.44;;;9.59
67966;BMP280;54749;47.850;9.002;2023-04-24T04:31:53;94983.44;;;9.59
67966;BMP280;54749;47.850;9.002;2023-04-24T04:34:21;94992.72;;;9.58
67966;BMP280;54749;47.850;9.002;2023-04-24T04:36:50;94996.44;;;9.54
67966;BMP280;54749;47.850;9.002;2023-04-24T04:39:27;95005.84;;;9.52
67966;BMP280;54749;47.850;9.002;2023-04-24T04:42:00;95006.91;;;9.50
67966;BMP280;54749;47.850;9.002;2023-04-24T04:44:37;95008.00;;;9.47
67966;BMP280;54749;47.850;9.002;2023-04-24T04:47:07;95013.97;;;9.46
67966;BMP280;54749;47.850;9.002;2023-04-24T04:49:37;95005.47;;;9.47
67966;BMP280;54749;47.850;9.002;2023-04-24T04:52:11;95031.47;;;9.48
67966;BMP280;54749;47.850;9.002;2023-04-24T04:54:39;95026.44;;;9.48
67966;BMP280;54749;47.850;9.002;2023-04-24T04:57:06;95031.19;;;9.42
67966;BMP280;54749;47.850;9.002;2023-04-24T04:59:34;95008.50;;;9.42
67966;BMP280;54749;47.850;9.002;2023-04-24T05:02:05;95024.81;;;9.38
67966;BMP280;54749;47.850;9.002;2023-04-24T05:04:33;95023.50;;;9.34
67966;BMP280;54749;47.850;9.002;2023-04-24T05:07:01;95028.66;;;9.32
67966;BMP280;54749;47.850;9.002;2023-04-24T05:09:31;95030.38;;;9.32
67966;BMP280;54749;47.850;9.002;2023-04-24T05:12:02;95037.81;;;9.33
67966;BMP280;54749;47.850;9.002;2023-04-24T05:14:34;95036.59;;;9.28
67966;BMP280;54749;47.850;9.002;2023-04-24T05:17:01;95035.69;;;9.29
67966;BMP280;54749;47.850;9.002;2023-04-24T05:19:30;95043.38;;;9.27
67966;BMP280;54749;47.850;9.002;2023-04-24T05:21:59;95048.41;;;9.27
67966;BMP280;54749;47.850;9.002;2023-04-24T05:24:32;95051.31;;;9.23
67966;BMP280;54749;47.850;9.002;2023-04-24T05:27:13;95072.56;;;9.21
67966;BMP280;54749;47.850;9.002;2023-04-24T05:29:40;95067.25;;;9.24
67966;BMP280;54749;47.850;9.002;2023-04-24T05:32:08;95069.38;;;9.28
67966;BMP280;54749;47.850;9.002;2023-04-24T05:34:35;95057.88;;;9.35
67966;BMP280;54749;47.850;9.002;2023-04-24T05:37:03;95059.63;;;9.44
67966;BMP280;54749;47.850;9.002;2023-04-24T05:39:35;95054.72;;;9.51
67966;BMP280;54749;47.850;9.002;2023-04-24T05:42:03;95034.41;;;9.62
67966;BMP280;54749;47.850;9.002;2023-04-24T05:44:31;95038.41;;;9.74
67966;BMP280;54749;47.850;9.002;2023-04-24T05:46:58;95027.69;;;9.90
67966;BMP280;54749;47.850;9.002;2023-04-24T05:49:26;95033.25;;;10.03
67966;BMP280;54749;47.850;9.002;2023-04-24T05:51:53;95021.94;;;10.16
67966;BMP280;54749;47.850;9.002;2023-04-24T05:54:21;95033.34;;;10.29
67966;BMP280;54749;47.850;9.002;2023-04-24T05:56:49;95045.28;;;10.46
67966;BMP280;54749;47.850;9.002;2023-04-24T05:59:25;95021.19;;;10.60
67966;BMP280;54749;47.850;9.002;2023-04-24T06:01:53;95034.03;;;10.76
67966;BMP280;54749;47.850;9.002;2023-04-24T06:04:21;95032.69;;;10.81
67966;BMP280;54749;47.850;9.002;2023-04-24T06:06:50;95033.97;;;10.94
67966;BMP280;54749;47.850;9.002;2023-04-24T06:09:23;95012.25;;;12.71
67966;BMP280;54749;47.850;9.002;2023-04-24T06:11:50;94992.72;;;14.24
67966;BMP280;54749;47.850;9.002;2023-04-24T06:14:23;94986.69;;;15.90
67966;BMP280;54749;47.850;9.002;2023-04-24T06:17:14;94988.09;;;16.22
67966;BMP280;54749;47.850;9.002;2023-04-24T06:19:42;95017.50;;;15.81
67966;BMP280;54749;47.850;9.002;2023-04-24T06:22:10;95024.63;;;15.26
67966;BMP280;54749;47.850;9.002;2023-04-24T06:24:37;95051.44;;;14.83
67966;BMP280;54749;47.850;9.002;2023-04-24T06:27:04;95055.59;;;14.37
67966;BMP280;54749;47.850;9.002;2023-04-24T06:29:33;95066.38;;;13.93
67966;BMP280;54749;47.850;9.002;2023-04-24T06:32:00;95050.66;;;13.49
67966;BMP280;54749;47.850;9.002;2023-04-24T06:34:27;95063.22;;;13.58
67966;BMP280;54749;47.850;9.002;2023-04-24T06:36:55;95068.94;;;13.60
67966;BMP280;54749;47.850;9.002;2023-04-24T06:39:22;95075.13;;;14.29
67966;BMP280;54749;47.850;9.002;2023-04-24T06:41:49;95037.56;;;15.84
67966;BMP280;54749;47.850;9.002;2023-04-24T06:44:19;95053.31;;;15.87
67966;BMP280;54749;47.850;9.002;2023-04-24T06:46:47;95052.19;;;16.55
67966;BMP280;54749;47.850;9.002;2023-04-24T06:49:14;95037.88;;;16.90
67966;BMP280;54749;47.850;9.002;2023-04-24T06:51:42;95047.44;;;16.52
67966;BMP280;54749;47.850;9.002;2023-04-24T06:54:10;95048.09;;;17.47
67966;BMP280;54749;47.850;9.002;2023-04-24T06:56:37;95041.91;;;18.59
67966;BMP280;54749;47.850;9.002;2023-04-24T06:59:04;95034.44;;;19.83
67966;BMP280;54749;47.850;9.002;2023-04-24T07:01:31;95046.38;;;18.98
67966;BMP280;54749;47.850;9.002;2023-04-24T07:03:59;95064.56;;;18.82
67966;BMP280;54749;47.850;9.002;2023-04-24T07:06:26;95046.03;;;17.99
67966;BMP280;54749;47.850;9.002;2023-04-24T07:08:54;95081.97;;;17.97
67966;BMP280;54749;47.850;9.002;2023-04-24T07:11:23;95060.69;;;17.62
67966;BMP280;54749;47.850;9.002;2023-04-24T07:13:50;95088.41;;;16.95
67966;BMP280;54749;47.850;9.002;2023-04-24T07:16:17;95106.56;;;16.34
67966;BMP280;54749;47.850;9.002;2023-04-24T07:18:45;95114.84;;;15.69
67966;BMP280;54749;47.850;9.002;2023-04-24T07:21:12;95132.47;;;15.33
67966;BMP280;54749;47.850;9.002;2023-04-24T07:23:39;95128.72;;;14.74
67966;BMP280;54749;47.850;9.002;2023-04-24T07:26:08;95148.25;;;14.58
67966;BMP280;54749;47.850;9.002;2023-04-24T07:28:35;95154.47;;;14.72
67966;BMP280;54749;47.850;9.002;2023-04-24T07:31:02;95136.63;;;15.79
67966;BMP280;54749;47.850;9.002;2023-04-24T07:33:30;95120.44;;;18.38
67966;BMP280;54749;47.850;9.002;2023-04-24T07:35:57;95092.13;;;20.46
67966;BMP280;54749;47.850;9.002;2023-04-24T07:38:24;95058.63;;;22.34
67966;BMP280;54749;47.850;9.002;2023-04-24T07:40:52;95064.88;;;24.11
67966;BMP280;54749;47.850;9.002;2023-04-24T07:43:20;95065.22;;;25.00
67966;BMP280;54749;47.850;9.002;2023-04-24T07:45:47;95056.75;;;24.82
67966;BMP280;54749;47.850;9.002;2023-04-24T07:48:15;95061.72;;;24.38
67966;BMP280;54749;47.850;9.002;2023-04-24T07:50:43;95098.16;;;22.58
67966;BMP280;54749;47.850;9.002;2023-04-24T07:53:11;95144.75;;;21.06
67966;BMP280;54749;47.850;9.002;2023-04-24T07:55:38;95163.59;;;20.03
67966;BMP280;54749;47.850;9.002;2023-04-24T07:58:05;95169.66;;;19.15
67966;BMP280;54749;47.850;9.002;2023-04-24T08:00:32;95198.66;;;18.47
67966;BMP280;54749;47.850;9.002;2023-04-24T08:03:00;95202.78;;;17.35
67966;BMP280;54749;47.850;9.002;2023-04-24T08:05:27;95217.97;;;16.85
67966;BMP280;54749;47.850;9.002;2023-04-24T08:07:56;95214.22;;;16.51
67966;BMP280;54749;47.850;9.002;2023-04-24T08:10:23;95222.81;;;16.21
67966;BMP280;54749;47.850;9.002;2023-04-24T08:12:51;95223.75;;;15.75
67966;BMP280;54749;47.850;9.002;2023-04-24T08:15:18;95236.44;;;15.90
67966;BMP280;54749;47.850;9.002;2023-04-24T08:17:45;95248.16;;;15.54
67966;BMP280;54749;47.850;9.002;2023-04-24T08:20:12;95247.31;;;15.69
67966;BMP280;54749;47.850;9.002;2023-04-24T08:22:43;95242.22;;;15.69
67966;BMP280;54749;47.850;9.002;2023-04-24T08:25:10;95243.97;;;15.68
67966;BMP280;54749;47.850;9.002;2023-04-24T08:27:37;95244.06;;;15.98
67966;BMP280;54749;47.850;9.002;2023-04-24T08:30:07;95240.06;;;16.41
67966;BMP280;54749;47.850;9.002;2023-04-24T08:32:34;95248.25;;;16.66
67966;BMP280;54749;47.850;9.002;2023-04-24T08:35:01;95230.66;;;16.41
67966;BMP280;54749;47.850;9.002;2023-04-24T08:37:28;95255.09;;;16.36
67966;BMP280;54749;47.850;9.002;2023-04-24T08:39:56;95255.19;;;16.13
67966;BMP280;54749;47.850;9.002;2023-04-24T08:42:23;95258.75;;;15.88
67966;BMP280;54749;47.850;9.002;2023-04-24T08:44:51;95253.38;;;15.76
67966;BMP280;54749;47.850;9.002;2023-04-24T08:47:19;95264.06;;;15.48
67966;BMP280;54749;47.850;9.002;2023-04-24T08:49:47;95265.19;;;15.14
67966;BMP280;54749;47.850;9.002;2023-04-24T08:52:15;95279.63;;;14.98
67966;BMP280;54749;47.850;9.002;2023-04-24T08:54:42;95275.66;;;14.96
67966;BMP280;54749;47.850;9.002;2023-04-24T08:57:14;95253.38;;;16.29
67966;BMP280;54749;47.850;9.002;2023-04-24T08:59:41;95246.72;;;17.81
67966;BMP280;54749;47.850;9.002;2023-04-24T09:02:11;95223.69;;;20.21
67966;BMP280;54749;47.850;9.002;2023-04-24T09:04:40;95220.94;;;21.71
67966;BMP280;54749;47.850;9.002;2023-04-24T09:07:09;95229.78;;;21.18
67966;BMP280;54749;47.850;9.002;2023-04-24T09:09:38;95259.63;;;19.67
67966;BMP280;54749;47.850;9.002;2023-04-24T09:12:05;95251.31;;;19.45
67966;BMP280;54749;47.850;9.002;2023-04-24T09:14:33;95242.00;;;19.85
67966;BMP280;54749;47.850;9.002;2023-04-24T09:17:00;95278.88;;;18.25
67966;BMP280;54749;47.850;9.002;2023-04-24T09:19:27;95283.13;;;17.47
67966;BMP280;54749;47.850;9.002;2023-04-24T09:21:54;95269.16;;;19.53
67966;BMP280;54749;47.850;9.002;2023-04-24T09:24:22;95245.44;;;22.24
67966;BMP280;54749;47.850;9.002;2023-04-24T09:26:56;95234.75;;;23.79
67966;BMP280;54749;47.850;9.002;2023-04-24T09:29:25;95217.59;;;25.82
67966;BMP280;54749;47.850;9.002;2023-04-24T09:31:53;95209.66;;;27.43
67966;BMP280;54749;47.850;9.002;2023-04-24T09:34:25;95201.28;;;26.48
67966;BMP280;54749;47.850;9.002;2023-04-24T09:36:53;95235.88;;;25.58
67966;BMP280;54749;47.850;9.002;2023-04-24T09:39:21;95250.66;;;23.16
67966;BMP280;54749;47.850;9.002;2023-04-24T09:41:53;95266.44;;;20.87
67966;BMP280;54749;47.850;9.002;2023-04-24T09:44:22;95267.84;;;20.89
67966;BMP280;54749;47.850;9.002;2023-04-24T09:46:59;95250.50;;;23.04
67966;BMP280;54749;47.850;9.002;2023-04-24T09:49:28;95240.59;;;25.03
67966;BMP280;54749;47.850;9.002;2023-04-24T09:52:06;95230.78;;;26.25
67966;BMP280;54749;47.850;9.002;2023-04-24T09:54:34;95220.94;;;27.37
67966;BMP280;54749;47.850;9.002;2023-04-24T09:57:04;95225.53;;;27.46
67966;BMP280;54749;47.850;9.002;2023-04-24T09:59:31;95236.31;;;26.28
67966;BMP280;54749;47.850;9.002;2023-04-24T10:02:01;95277.44;;;23.51
67966;BMP280;54749;47.850;9.002;2023-04-24T10:04:28;95274.69;;;22.48
67966;BMP280;54749;47.850;9.002;2023-04-24T10:06:57;95297.56;;;22.07
67966;BMP280;54749;47.850;9.002;2023-04-24T10:09:25;95279.72;;;23.65
67966;BMP280;54749;47.850;9.002;2023-04-24T10:11:54;95251.19;;;26.21
67966;BMP280;54749;47.850;9.002;2023-04-24T10:14:23;95237.06;;;28.14
67966;BMP280;54749;47.850;9.002;2023-04-24T10:16:53;95238.28;;;28.97
67966;BMP280;54749;47.850;9.002;2023-04-24T10:19:23;95282.81;;;25.90
67966;BMP280;54749;47.850;9.002;2023-04-24T10:21:52;95291.19;;;24.99
67966;BMP280;54749;47.850;9.002;2023-04-24T10:24:21;95284.88;;;26.33
67966;BMP280;54749;47.850;9.002;2023-04-24T10:26:48;95257.56;;;28.27
67966;BMP280;54749;47.850;9.002;2023-04-24T10:29:18;95257.34;;;28.82
67966;BMP280;54749;47.850;9.002;2023-04-24T10:31:46;95269.97;;;28.57
67966;BMP280;54749;47.850;9.002;2023-04-24T10:34:15;95277.56;;;27.94
67966;BMP280;54749;47.850;9.002;2023-04-24T10:36:48;95284.56;;;27.51
67966;BMP280;54749;47.850;9.002;2023-04-24T10:39:16;95287.50;;;26.66
67966;BMP280;54749;47.850;9.002;2023-04-24T10:41:44;95326.63;;;24.40
67966;BMP280;54749;47.850;9.002;2023-04-24T10:44:13;95331.69;;;22.83
67966;BMP280;54749;47.850;9.002;2023-04-24T10:46:53;95312.19;;;23.79
67966;BMP280;54749;47.850;9.002;2023-04-24T10:49:29;95313.91;;;24.62
67966;BMP280;54749;47.850;9.002;2023-04-24T10:52:04;95312.13;;;26.01
67966;BMP280;54749;47.850;9.002;2023-04-24T10:59:51;95306.75;;;26.59
67966;BMP280;54749;47.850;9.002;2023-04-24T11:02:35;95326.41;;;25.35
67966;BMP280;54749;47.850;9.002;2023-04-24T11:05:04;95335.16;;;23.56
67966;BMP280;54749;47.850;9.002;2023-04-24T11:10:45;95316.97;;;22.96
67966;BMP280;54749;47.850;9.002;2023-04-24T11:13:16;95345.78;;;21.02
67966;BMP280;54749;47.850;9.002;2023-04-24T11:15:44;95344.06;;;21.15
67966;BMP280;54749;47.850;9.002;2023-04-24T11:18:14;95338.00;;;21.29
67966;BMP280;54749;47.850;9.002;2023-04-24T11:20:44;95361.41;;;20.14
67966;BMP280;54749;47.850;9.002;2023-04-24T11:23:12;95369.56;;;19.22
67966;BMP280;54749;47.850;9.002;2023-04-24T11:25:41;95376.69;;;18.92
67966;BMP280;54749;47.850;9.002;2023-04-24T11:28:14;95376.09;;;18.54
67966;BMP280;54749;47.850;9.002;2023-04-24T11:30:43;95378.38;;;18.21
67966;BMP280;54749;47.850;9.002;2023-04-24T11:33:10;95376.88;;;18.40
67966;BMP280;54749;47.850;9.002;2023-04-24T11:35:40;95390.78;;;18.59
67966;BMP280;54749;47.850;9.002;2023-04-24T11:38:07;95381.66;;;18.57
67966;BMP280;54749;47.850;9.002;2023-04-24T11:40:51;95378.75;;;18.46
67966;BMP280;54749;47.850;9.002;2023-04-24T11:43:19;95376.59;;;18.71
67966;BMP280;54749;47.850;9.002;2023-04-24T11:45:49;95382.28;;;19.01
67966;BMP280;54749;47.850;9.002;2023-04-24T11:48:20;95380.88;;;19.13
67966;BMP280;54749;47.850;9.002;2023-04-24T11:50:50;95380.91;;;18.99
67966;BMP280;54749;47.850;9.002;2023-04-24T11:53:20;95377.13;;;18.95
67966;BMP280;54749;47.850;9.002;2023-04-24T11:55:48;95384.25;;;18.85
67966;BMP280;54749;47.850;9.002;2023-04-24T11:58:20;95395.34;;;18.50
67966;BMP280;54749;47.850;9.002;2023-04-24T12:00:55;95405.34;;;18.09
67966;BMP280;54749;47.850;9.002;2023-04-24T12:03:23;95412.41;;;17.85
67966;BMP280;54749;47.850;9.002;2023-04-24T12:05:50;95394.56;;;17.99
67966;BMP280;54749;47.850;9.002;2023-04-24T12:08:28;95405.69;;;18.06
67966;BMP280;54749;47.850;9.002;2023-04-24T12:10:56;95399.59;;;18.07
67966;BMP280;54749;47.850;9.002;2023-04-24T12:13:25;95418.00;;;17.29
67966;BMP280;54749;47.850;9.002;2023-04-24T12:15:52;95410.69;;;17.26
67966;BMP280;54749;47.850;9.002;2023-04-24T12:18:23;95419.41;;;17.10
67966;BMP280;54749;47.850;9.002;2023-04-24T12:20:50;95425.41;;;16.79
67966;BMP280;54749;47.850;9.002;2023-04-24T12:23:36;95418.88;;;16.69
67966;BMP280;54749;47.850;9.002;2023-04-24T12:26:04;95428.53;;;16.20
67966;BMP280;54749;47.850;9.002;2023-04-24T12:28:36;95431.06;;;16.28
67966;BMP280;54749;47.850;9.002;2023-04-24T12:31:04;95424.56;;;16.18
67966;BMP280;54749;47.850;9.002;2023-04-24T12:33:33;95419.94;;;16.21
67966;BMP280;54749;47.850;9.002;2023-04-24T12:36:01;95420.69;;;16.37
67966;BMP280;54749;47.850;9.002;2023-04-24T12:38:29;95415.25;;;16.56
67966;BMP280;54749;47.850;9.002;2023-04-24T12:41:09;95406.34;;;17.05
67966;BMP280;54749;47.850;9.002;2023-04-24T12:43:36;95404.78;;;17.99
67966;BMP280;54749;47.850;9.002;2023-04-24T12:46:05;95394.03;;;18.40
67966;BMP280;54749;47.850;9.002;2023-04-24T12:48:32;95384.72;;;18.24
67966;BMP280;54749;47.850;9.002;2023-04-24T12:50:59;95385.81;;;18.30
67966;BMP280;54749;47.850;9.002;2023-04-24T12:53:29;95383.06;;;18.17
67966;BMP280;54749;47.850;9.002;2023-04-24T12:55:58;95384.41;;;18.06
67966;BMP280;54749;47.850;9.002;2023-04-24T12:58:25;95380.78;;;18.22
67966;BMP280;54749;47.850;9.002;2023-04-24T13:00:52;95364.06;;;18.12
67966;BMP280;54749;47.850;9.002;2023-04-24T13:03:20;95381.22;;;17.89
67966;BMP280;54749;47.850;9.002;2023-04-24T13:05:47;95379.38;;;17.98
67966;BMP280;54749;47.850;9.002;2023-04-24T13:08:14;95374.34;;;18.40
67966;BMP280;54749;47.850;9.002;2023-04-24T13:10:42;95372.75;;;18.67
67966;BMP280;54749;47.850;9.002;2023-04-24T13:13:09;95385.00;;;18.29
67966;BMP280;54749;47.850;9.002;2023-04-24T13:15:36;95399.38;;;17.94
67966;BMP280;54749;47.850;9.002;2023-04-24T13:18:03;95400.78;;;17.31
67966;BMP280;54749;47.850;9.002;2023-04-24T13:20:31;95406.94;;;17.07
67966;BMP280;54749;47.850;9.002;2023-04-24T13:22:58;95405.59;;;16.36
67966;BMP280;54749;47.850;9.002;2023-04-24T13:25:27;95398.06;;;16.34
67966;BMP280;54749;47.850;9.002;2023-04-24T13:27:54;95396.00;;;16.30
67966;BMP280;54749;47.850;9.002;2023-04-24T13:30:22;95392.41;;;16.70
67966;BMP280;54749;47.850;9.002;2023-04-24T13:32:49;95384.00;;;16.99
67966;BMP280;54749;47.850;9.002;2023-04-24T13:35:16;95389.56;;;17.02
67966;BMP280;54749;47.850;9.002;2023-04-24T13:37:43;95373.56;;;17.38
67966;BMP280;54749;47.850;9.002;2023-04-24T13:40:10;95378.56;;;17.32
67966;BMP280;54749;47.850;9.002;2023-04-24T13:42:38;95380.34;;;17.31
67966;BMP280;54749;47.850;9.002;2023-04-24T13:45:05;95387.50;;;17.36
67966;BMP280;54749;47.850;9.002;2023-04-24T13:47:50;95373.63;;;17.30
67966;BMP280;54749;47.850;9.002;2023-04-24T13:50:19;95377.66;;;17.25
67966;BMP280;54749;47.850;9.002;2023-04-24T13:52:47;95379.25;;;16.96
67966;BMP280;54749;47.850;9.002;2023-04-24T13:55:14;95379.22;;;16.88
67966;BMP280;54749;47.850;9.002;2023-04-24T13:57:41;95381.91;;;16.65
67966;BMP280;54749;47.850;9.002;2023-04-24T14:00:09;95375.03;;;16.65
67966;BMP280;54749;47.850;9.002;2023-04-24T14:02:37;95378.00;;;16.77
67966;BMP280;54749;47.850;9.002;2023-04-24T14:05:05;95389.16;;;16.83
67966;BMP280;54749;47.850;9.002;2023-04-24T14:07:33;95373.50;;;16.86
67966;BMP280;54749;47.850;9.002;2023-04-24T14:10:00;95372.41;;;16.81
67966;BMP280;54749;47.850;9.002;2023-04-24T14:12:27;95384.47;;;16.57
67966;BMP280;54749;47.850;9.002;2023-04-24T14:14:54;95378.22;;;16.14
67966;BMP280;54749;47.850;9.002;2023-04-24T14:17:22;95379.78;;;15.92
67966;BMP280;54749;47.850;9.002;2023-04-24T14:19:49;95385.84;;;16.07
67966;BMP280;54749;47.850;9.002;2023-04-24T14:22:18;95390.63;;;16.10
67966;BMP280;54749;47.850;9.002;2023-04-24T14:24:45;95378.00;;;16.24
67966;BMP280;54749;47.850;9.002;2023-04-24T14:27:12;95378.47;;;16.35
67966;BMP280;54749;47.850;9.002;2023-04-24T14:29:42;95378.00;;;16.77